createdAt,value
2023-03-01T00:01:05.266Z,0.70
2023-03-01T00:03:33.010Z,0.80
2023-03-01T00:06:01.427Z,0.70
2023-03-01T00:08:28.549Z,0.70
2023-03-01T00:11:10.761Z,0.70
2023-03-01T00:13:39.173Z,0.70
2023-03-01T00:16:06.950Z,0.70
2023-03-01T00:18:34.706Z,0.70
2023-03-01T00:21:02.040Z,0.70
2023-03-01T00:23:29.063Z,0.70
2023-03-01T00:25:56.133Z,0.70
2023-03-01T00:28:23.114Z,0.70
2023-03-01T00:30:50.203Z,0.70
2023-03-01T00:33:17.190Z,0.70
2023-03-01T00:35:45.324Z,0.70
2023-03-01T00:38:12.523Z,0.70
2023-03-01T00:40:39.417Z,0.60
2023-03-01T00:43:06.860Z,0.70
2023-03-01T00:45:37.376Z,0.60
2023-03-01T00:48:04.384Z,0.70
2023-03-01T00:50:35.196Z,0.70
2023-03-01T00:53:02.858Z,0.60
2023-03-01T00:55:32.206Z,0.60
2023-03-01T00:58:04.391Z,0.60
2023-03-01T01:00:31.418Z,0.50
2023-03-01T01:02:58.431Z,0.60
2023-03-01T01:05:26.379Z,0.50
2023-03-01T01:07:54.168Z,0.50
2023-03-01T01:10:21.107Z,0.50
2023-03-01T01:12:48.042Z,0.50
2023-03-01T01:15:17.530Z,0.50
2023-03-01T01:17:47.130Z,0.50
2023-03-01T01:20:14.157Z,0.50
2023-03-01T01:22:40.922Z,0.50
2023-03-01T01:25:08.140Z,0.50
2023-03-01T01:27:35.401Z,0.50
2023-03-01T01:30:02.348Z,0.50
2023-03-01T01:32:29.312Z,0.40
2023-03-01T01:34:56.166Z,0.40
2023-03-01T01:37:23.066Z,0.40
2023-03-01T01:39:49.980Z,0.50
2023-03-01T01:42:17.559Z,0.40
2023-03-01T01:44:46.830Z,0.40
2023-03-01T01:47:15.809Z,0.50
2023-03-01T01:49:44.678Z,0.40
2023-03-01T01:52:19.426Z,0.50
2023-03-01T01:54:58.817Z,0.40
2023-03-01T01:57:30.424Z,0.40
2023-03-01T01:59:59.931Z,0.40
2023-03-01T02:02:27.470Z,0.40
2023-03-01T02:05:04.627Z,0.40
2023-03-01T02:07:31.668Z,0.40
2023-03-01T02:09:59.361Z,0.40
2023-03-01T02:12:26.845Z,0.40
2023-03-01T02:14:53.821Z,0.30
2023-03-01T02:17:22.161Z,0.40
2023-03-01T02:19:55.110Z,0.40
2023-03-01T02:22:25.028Z,0.30
2023-03-01T02:24:55.849Z,0.30
2023-03-01T02:27:25.817Z,0.30
2023-03-01T02:29:56.788Z,0.30
2023-03-01T02:32:26.157Z,0.30
2023-03-01T02:34:54.361Z,0.30
2023-03-01T02:37:26.231Z,0.30
2023-03-01T02:39:58.508Z,0.30
2023-03-01T02:42:33.122Z,0.30
2023-03-01T02:45:00.168Z,0.30
2023-03-01T02:47:27.070Z,0.20
2023-03-01T02:49:54.088Z,0.20
2023-03-01T02:52:35.492Z,0.20
2023-03-01T02:55:13.895Z,0.20
2023-03-01T02:57:42.898Z,0.20
2023-03-01T03:00:22.612Z,0.20
2023-03-01T03:02:50.641Z,0.20
2023-03-01T03:05:20.849Z,0.20
2023-03-01T03:07:49.711Z,0.20
2023-03-01T03:10:24.342Z,0.20
2023-03-01T03:12:52.653Z,0.10
2023-03-01T03:15:21.509Z,0.10
2023-03-01T03:17:48.796Z,0.10
2023-03-01T03:20:20.121Z,0.10
2023-03-01T03:22:48.444Z,0.10
2023-03-01T03:25:15.408Z,0.00
2023-03-01T03:27:45.153Z,0.10
2023-03-01T03:30:14.245Z,0.10
2023-03-01T03:32:42.407Z,0.10
2023-03-01T03:35:10.604Z,0.10
2023-03-01T03:37:56.823Z,0.10
2023-03-01T03:40:23.851Z,0.10
2023-03-01T03:42:50.791Z,0.20
2023-03-01T03:45:18.342Z,0.10
2023-03-01T03:47:46.448Z,0.10
2023-03-01T03:50:14.328Z,0.20
2023-03-01T03:52:41.683Z,0.10
2023-03-01T03:55:10.408Z,0.10
2023-03-01T03:57:43.420Z,0.20
2023-03-01T04:00:14.799Z,0.20
2023-03-01T04:02:45.896Z,0.20
2023-03-01T04:05:13.554Z,0.20
2023-03-01T04:07:40.467Z,0.20
2023-03-01T04:10:09.237Z,0.20
2023-03-01T04:12:36.124Z,0.20
2023-03-01T04:15:13.561Z,0.20
2023-03-01T04:17:44.813Z,0.20
2023-03-01T04:20:12.844Z,0.20
2023-03-01T04:22:40.160Z,0.20
2023-03-01T04:25:07.915Z,0.20
2023-03-01T04:27:35.992Z,0.20
2023-03-01T04:30:04.560Z,0.20
2023-03-01T04:32:32.894Z,0.20
2023-03-01T04:35:00.232Z,0.20
2023-03-01T04:37:27.751Z,0.20
2023-03-01T04:39:54.688Z,0.30
2023-03-01T04:42:22.021Z,0.30
2023-03-01T04:44:48.869Z,0.30
2023-03-01T04:47:15.772Z,0.30
2023-03-01T04:49:42.663Z,0.30
2023-03-01T04:52:10.343Z,0.30
2023-03-01T04:54:37.295Z,0.40
2023-03-01T04:57:04.298Z,0.40
2023-03-01T04:59:31.328Z,0.40
2023-03-01T05:01:58.503Z,0.40
2023-03-01T05:04:25.805Z,0.40
2023-03-01T05:06:54.556Z,0.40
2023-03-01T05:09:21.778Z,0.50
2023-03-01T05:11:48.991Z,0.50
2023-03-01T05:14:15.805Z,0.60
2023-03-01T05:16:43.026Z,0.60
2023-03-01T05:19:16.429Z,0.60
2023-03-01T05:22:02.660Z,0.70
2023-03-01T05:24:30.412Z,0.60
2023-03-01T05:26:57.592Z,0.60
2023-03-01T05:29:27.988Z,0.70
2023-03-01T05:31:56.369Z,0.80
2023-03-01T05:34:27.555Z,0.70
2023-03-01T05:36:54.811Z,0.80
2023-03-01T05:39:23.477Z,0.70
2023-03-01T05:41:54.558Z,0.80
2023-03-01T05:44:21.821Z,0.80
2023-03-01T05:46:50.999Z,0.80
2023-03-01T05:49:18.332Z,0.90
2023-03-01T05:51:48.833Z,0.90
2023-03-01T05:54:16.040Z,0.90
2023-03-01T05:56:45.472Z,0.90
2023-03-01T05:59:12.469Z,0.90
2023-03-01T06:01:39.324Z,0.90
2023-03-01T06:04:06.191Z,1.00
2023-03-01T06:06:38.493Z,1.00
2023-03-01T06:09:10.202Z,1.00
2023-03-01T06:11:37.307Z,1.10
2023-03-01T06:14:04.672Z,1.10
2023-03-01T06:16:32.180Z,1.10
2023-03-01T06:18:59.500Z,1.10
2023-03-01T06:21:26.419Z,1.10
2023-03-01T06:23:53.258Z,1.10
2023-03-01T06:26:20.593Z,1.10
2023-03-01T06:28:47.421Z,1.10
2023-03-01T06:31:14.621Z,1.10
2023-03-01T06:33:45.719Z,1.10
2023-03-01T06:36:12.765Z,1.10
2023-03-01T06:38:41.837Z,1.20
2023-03-01T06:41:09.044Z,1.20
2023-03-01T06:43:35.919Z,1.20
2023-03-01T06:46:12.895Z,1.20
2023-03-01T06:48:39.747Z,1.20
2023-03-01T06:51:06.869Z,1.20
2023-03-01T06:53:33.770Z,1.30
2023-03-01T06:56:05.157Z,1.20
2023-03-01T06:58:32.397Z,1.30
2023-03-01T07:01:00.554Z,1.40
2023-03-01T07:03:27.404Z,1.40
2023-03-01T07:05:57.285Z,1.40
2023-03-01T07:08:24.344Z,1.50
2023-03-01T07:11:00.391Z,1.50
2023-03-01T07:13:27.517Z,1.60
2023-03-01T07:15:57.620Z,1.60
2023-03-01T07:18:24.774Z,1.60
2023-03-01T07:20:54.914Z,1.60
2023-03-01T07:23:29.150Z,1.60
2023-03-01T07:25:56.239Z,1.70
2023-03-01T07:28:28.967Z,1.70
2023-03-01T07:31:01.949Z,1.70
2023-03-01T07:33:33.696Z,1.80
2023-03-01T07:36:02.118Z,1.80
2023-03-01T07:38:30.012Z,1.90
2023-03-01T07:41:01.399Z,1.90
2023-03-01T07:43:29.105Z,2.00
2023-03-01T07:45:56.004Z,2.00
2023-03-01T07:48:22.976Z,2.00
2023-03-01T07:50:49.837Z,2.00
2023-03-01T07:53:16.704Z,2.10
2023-03-01T07:55:43.915Z,2.10
2023-03-01T07:58:10.758Z,2.10
2023-03-01T08:00:37.708Z,2.20
2023-03-01T08:03:13.194Z,2.20
2023-03-01T08:05:42.500Z,2.20
2023-03-01T08:08:09.434Z,2.30
2023-03-01T08:10:37.811Z,2.30
2023-03-01T08:13:04.834Z,2.30
2023-03-01T08:15:33.502Z,2.30
2023-03-01T08:18:05.453Z,2.30
2023-03-01T08:20:32.391Z,2.30
2023-03-01T08:22:59.465Z,2.30
2023-03-01T08:25:26.417Z,2.30
2023-03-01T08:27:56.516Z,2.40
2023-03-01T08:30:24.959Z,2.40
2023-03-01T08:32:52.529Z,2.40
2023-03-01T08:35:20.751Z,2.40
2023-03-01T08:37:47.937Z,2.50
2023-03-01T08:40:15.108Z,2.50
2023-03-01T08:42:43.908Z,2.50
2023-03-01T08:45:12.295Z,2.60
2023-03-01T08:47:39.212Z,2.60
2023-03-01T08:50:06.426Z,2.70
2023-03-01T08:52:33.981Z,2.70
2023-03-01T08:55:02.534Z,2.80
2023-03-01T08:57:29.309Z,2.80
2023-03-01T08:59:57.147Z,2.90
2023-03-01T09:02:24.342Z,2.90
2023-03-01T09:04:54.142Z,2.90
2023-03-01T09:07:20.938Z,3.00
2023-03-01T09:09:47.842Z,3.10
2023-03-01T09:12:14.660Z,3.10
2023-03-01T09:14:42.349Z,3.20
2023-03-01T09:17:09.328Z,3.20
2023-03-01T09:19:36.371Z,3.30
2023-03-01T09:22:04.429Z,3.40
2023-03-01T09:24:31.660Z,3.40
2023-03-01T09:26:58.636Z,3.50
2023-03-01T09:29:25.795Z,3.50
2023-03-01T09:31:56.081Z,3.60
2023-03-01T09:34:24.522Z,3.60
2023-03-01T09:36:52.232Z,3.60
2023-03-01T09:39:19.742Z,3.70
2023-03-01T09:42:07.068Z,3.70
2023-03-01T09:44:36.937Z,3.70
2023-03-01T09:47:04.192Z,3.70
2023-03-01T09:49:40.660Z,3.80
2023-03-01T09:52:20.565Z,3.80
2023-03-01T09:54:47.965Z,3.90
2023-03-01T09:57:27.102Z,3.90
2023-03-01T09:59:54.027Z,3.90
2023-03-01T10:02:42.831Z,4.00
2023-03-01T10:05:15.839Z,4.00
2023-03-01T10:08:01.637Z,4.00
2023-03-01T10:10:30.113Z,4.10
2023-03-01T10:12:57.864Z,4.10
2023-03-01T10:15:56.340Z,4.20
2023-03-01T10:18:25.582Z,4.20
2023-03-01T10:21:25.315Z,4.10
2023-03-01T10:23:53.629Z,4.10
2023-03-01T10:26:26.829Z,4.10
2023-03-01T10:29:10.322Z,4.10
2023-03-01T10:31:40.777Z,4.10
2023-03-01T10:34:12.985Z,4.20
2023-03-01T10:36:40.852Z,4.20
2023-03-01T10:39:15.872Z,4.20
2023-03-01T10:41:53.766Z,4.20
2023-03-01T10:44:39.698Z,4.20
2023-03-01T10:47:14.018Z,4.30
2023-03-01T10:49:52.279Z,4.40
2023-03-01T10:52:20.857Z,4.40
2023-03-01T10:54:58.161Z,4.40
2023-03-01T10:57:42.520Z,4.50
2023-03-01T11:00:23.255Z,4.50
2023-03-01T11:02:51.547Z,4.50
2023-03-01T11:05:20.652Z,4.60
2023-03-01T11:07:52.387Z,4.60
2023-03-01T11:10:22.657Z,4.60
2023-03-01T11:12:49.826Z,4.60
2023-03-01T11:15:29.690Z,4.70
2023-03-01T11:18:09.052Z,4.60
2023-03-01T11:20:40.740Z,4.70
2023-03-01T11:23:11.968Z,4.80
2023-03-01T11:25:48.901Z,4.80
2023-03-01T11:28:18.805Z,4.80
2023-03-01T11:31:06.845Z,4.80
2023-03-01T11:33:34.878Z,4.80
2023-03-01T11:36:06.757Z,4.80
2023-03-01T11:38:35.145Z,4.80
2023-03-01T11:41:09.045Z,4.80
2023-03-01T11:43:47.134Z,4.90
2023-03-01T11:46:36.050Z,5.00
2023-03-01T11:49:12.265Z,5.00
2023-03-01T11:51:48.459Z,5.10
2023-03-01T11:54:30.865Z,5.10
2023-03-01T11:57:16.548Z,5.20
2023-03-01T12:00:04.431Z,5.30
2023-03-01T12:02:34.434Z,5.30
2023-03-01T12:05:20.468Z,5.30
2023-03-01T12:08:02.670Z,5.40
2023-03-01T12:10:38.756Z,5.40
2023-03-01T12:13:24.615Z,5.40
2023-03-01T12:16:08.901Z,5.40
2023-03-01T12:18:35.769Z,5.50
2023-03-01T12:21:03.252Z,5.50
2023-03-01T12:23:30.056Z,5.60
2023-03-01T12:26:03.450Z,5.60
2023-03-01T12:28:41.608Z,5.70
2023-03-01T12:31:12.715Z,5.70
2023-03-01T12:34:02.998Z,5.70
2023-03-01T12:36:37.766Z,5.70
2023-03-01T12:39:13.139Z,5.80
2023-03-01T12:41:45.969Z,5.80
2023-03-01T12:44:25.185Z,5.80
2023-03-01T12:47:09.441Z,5.80
2023-03-01T12:49:53.037Z,5.80
2023-03-01T12:52:25.377Z,5.90
2023-03-01T12:54:55.621Z,6.00
2023-03-01T12:57:37.881Z,6.00
2023-03-01T13:00:10.654Z,6.10
2023-03-01T13:02:42.657Z,6.20
2023-03-01T13:05:28.447Z,6.20
2023-03-01T13:07:55.235Z,6.30
2023-03-01T13:10:40.736Z,6.30
2023-03-01T13:13:11.243Z,6.30
2023-03-01T13:15:38.685Z,6.30
2023-03-01T13:18:20.462Z,6.30
2023-03-01T13:20:48.407Z,6.30
2023-03-01T13:23:24.630Z,6.40
2023-03-01T13:25:58.492Z,6.40
2023-03-01T13:28:40.467Z,6.40
2023-03-01T13:31:11.803Z,6.40
2023-03-01T13:33:50.811Z,6.40
2023-03-01T13:36:30.654Z,6.40
2023-03-01T13:38:59.378Z,6.40
2023-03-01T13:41:48.335Z,6.40
2023-03-01T13:44:18.119Z,6.40
2023-03-01T13:46:46.406Z,6.40
2023-03-01T13:49:16.366Z,6.40
2023-03-01T13:51:47.187Z,6.50
2023-03-01T13:54:15.213Z,6.50
2023-03-01T13:56:42.464Z,6.50
2023-03-01T13:59:22.617Z,6.50
2023-03-01T14:01:55.868Z,6.60
2023-03-01T14:04:27.957Z,6.60
2023-03-01T14:07:13.551Z,6.60
2023-03-01T14:09:42.384Z,6.60
2023-03-01T14:12:25.445Z,6.60
2023-03-01T14:14:55.797Z,6.60
2023-03-01T14:17:33.499Z,6.60
2023-03-01T14:20:05.209Z,6.50
2023-03-01T14:22:34.764Z,6.50
2023-03-01T14:25:04.252Z,6.60
2023-03-01T14:27:33.224Z,6.50
2023-03-01T14:30:01.838Z,6.60
2023-03-01T14:32:30.329Z,6.60
2023-03-01T14:35:00.653Z,6.60
2023-03-01T14:37:28.748Z,6.60
2023-03-01T14:39:56.478Z,6.60
2023-03-01T14:42:24.503Z,6.60
2023-03-01T14:44:52.326Z,6.60
2023-03-01T14:47:39.281Z,6.70
2023-03-01T14:50:09.322Z,6.70
2023-03-01T14:52:38.169Z,6.70
2023-03-01T14:55:06.283Z,6.70
2023-03-01T14:57:33.316Z,6.70
2023-03-01T15:00:04.593Z,6.70
2023-03-01T15:02:32.262Z,6.70
2023-03-01T15:05:01.979Z,6.70
2023-03-01T15:07:31.288Z,6.70
2023-03-01T15:09:59.270Z,6.70
2023-03-01T15:12:35.364Z,6.70
2023-03-01T15:15:04.347Z,6.70
2023-03-01T15:17:36.317Z,6.60
2023-03-01T15:20:06.919Z,6.60
2023-03-01T15:22:34.210Z,6.60
2023-03-01T15:25:01.356Z,6.60
2023-03-01T15:27:28.706Z,6.60
2023-03-01T15:30:00.292Z,6.60
2023-03-01T15:32:34.517Z,6.60
2023-03-01T15:35:30.646Z,6.50
2023-03-01T15:38:01.555Z,6.60
2023-03-01T15:40:32.666Z,6.60
2023-03-01T15:43:00.153Z,6.60
2023-03-01T15:45:28.835Z,6.50
2023-03-01T15:47:58.888Z,6.50
2023-03-01T15:50:27.669Z,6.50
2023-03-01T15:52:55.498Z,6.40
2023-03-01T15:55:29.709Z,6.40
2023-03-01T15:58:10.877Z,6.40
2023-03-01T16:00:48.765Z,6.50
2023-03-01T16:03:25.082Z,6.40
2023-03-01T16:05:52.387Z,6.40
2023-03-01T16:08:19.839Z,6.40
2023-03-01T16:10:47.004Z,6.40
2023-03-01T16:13:13.960Z,6.30
2023-03-01T16:15:41.254Z,6.40
2023-03-01T16:18:11.303Z,6.40
2023-03-01T16:20:38.536Z,6.30
2023-03-01T16:23:07.315Z,6.30
2023-03-01T16:25:34.909Z,6.20
2023-03-01T16:28:06.067Z,6.20
2023-03-01T16:30:36.228Z,6.10
2023-03-01T16:33:19.108Z,6.10
2023-03-01T16:35:51.958Z,6.20
2023-03-01T16:38:19.336Z,6.10
2023-03-01T16:40:48.391Z,6.10
2023-03-01T16:43:15.335Z,6.10
2023-03-01T16:45:45.557Z,6.10
2023-03-01T16:48:12.734Z,6.00
2023-03-01T16:50:40.827Z,6.00
2023-03-01T16:53:08.179Z,6.00
2023-03-01T16:55:39.816Z,5.90
2023-03-01T16:58:10.268Z,5.90
2023-03-01T17:00:37.192Z,5.90
2023-03-01T17:03:05.358Z,5.80
2023-03-01T17:05:32.499Z,5.80
2023-03-01T17:08:00.893Z,5.70
2023-03-01T17:10:29.038Z,5.70
2023-03-01T17:12:57.341Z,5.70
2023-03-01T17:15:25.000Z,5.60
2023-03-01T17:17:52.148Z,5.50
2023-03-01T17:20:19.150Z,5.50
2023-03-01T17:22:46.051Z,5.50
2023-03-01T17:25:13.462Z,5.40
2023-03-01T17:27:40.656Z,5.30
2023-03-01T17:30:08.683Z,5.30
2023-03-01T17:32:35.600Z,5.20
2023-03-01T17:35:07.913Z,5.20
2023-03-01T17:37:37.161Z,5.10
2023-03-01T17:40:04.482Z,5.00
2023-03-01T17:42:31.808Z,5.00
2023-03-01T17:44:58.870Z,5.00
2023-03-01T17:47:27.068Z,5.00
2023-03-01T17:49:54.100Z,4.90
2023-03-01T17:52:26.242Z,4.80
2023-03-01T17:54:53.312Z,4.80
2023-03-01T17:57:22.225Z,4.70
2023-03-01T17:59:49.218Z,4.70
2023-03-01T18:02:19.184Z,4.60
2023-03-01T18:04:46.214Z,4.60
2023-03-01T18:07:13.250Z,4.50
2023-03-01T18:09:40.164Z,4.50
2023-03-01T18:12:07.148Z,4.40
2023-03-01T18:14:34.168Z,4.30
2023-03-01T18:17:03.936Z,4.30
2023-03-01T18:19:34.358Z,4.20
2023-03-01T18:22:01.341Z,4.20
2023-03-01T18:24:45.775Z,4.20
2023-03-01T18:27:18.582Z,4.20
2023-03-01T18:29:45.520Z,4.10
2023-03-01T18:32:12.397Z,4.10
2023-03-01T18:34:39.537Z,4.00
2023-03-01T18:37:09.539Z,4.00
2023-03-01T18:39:37.222Z,4.00
2023-03-01T18:42:04.517Z,3.90
2023-03-01T18:44:31.512Z,3.90
2023-03-01T18:46:59.583Z,3.90
2023-03-01T18:49:26.673Z,3.80
2023-03-01T18:51:53.978Z,3.80
2023-03-01T18:54:21.224Z,3.80
2023-03-01T18:56:48.141Z,3.70
2023-03-01T18:59:15.121Z,3.60
2023-03-01T19:01:42.528Z,3.60
2023-03-01T19:04:10.965Z,3.60
2023-03-01T19:06:38.092Z,3.50
2023-03-01T19:09:06.473Z,3.50
2023-03-01T19:11:36.693Z,3.40
2023-03-01T19:14:04.516Z,3.50
2023-03-01T19:16:32.397Z,3.40
2023-03-01T19:19:01.579Z,3.50
2023-03-01T19:21:32.744Z,3.40
2023-03-01T19:24:05.152Z,3.40
2023-03-01T19:26:32.922Z,3.40
2023-03-01T19:29:02.365Z,3.30
2023-03-01T19:31:30.774Z,3.30
2023-03-01T19:34:10.926Z,3.10
2023-03-01T19:36:43.066Z,3.00
2023-03-01T19:39:11.314Z,3.00
2023-03-01T19:41:38.360Z,2.90
2023-03-01T19:44:10.153Z,2.90
2023-03-01T19:46:37.412Z,2.80
2023-03-01T19:49:05.134Z,2.80
2023-03-01T19:51:36.493Z,2.70
2023-03-01T19:54:07.070Z,2.70
2023-03-01T19:56:34.692Z,2.70
2023-03-01T19:59:07.320Z,2.70
2023-03-01T20:01:42.345Z,2.70
2023-03-01T20:04:09.704Z,2.70
2023-03-01T20:06:40.871Z,2.60
2023-03-01T20:09:21.553Z,2.60
2023-03-01T20:11:52.078Z,2.60
2023-03-01T20:14:21.085Z,2.60
2023-03-01T20:16:53.051Z,2.60
2023-03-01T20:19:22.796Z,2.60
2023-03-01T20:21:49.899Z,2.60
2023-03-01T20:24:17.048Z,2.50
2023-03-01T20:26:45.214Z,2.60
2023-03-01T20:29:22.794Z,2.60
2023-03-01T20:31:49.879Z,2.50
2023-03-01T20:34:19.723Z,2.50
2023-03-01T20:36:46.649Z,2.50
2023-03-01T20:39:14.185Z,2.50
2023-03-01T20:44:34.444Z,2.50
2023-03-01T20:47:01.687Z,2.50
2023-03-01T20:49:29.762Z,2.40
2023-03-01T20:51:59.287Z,2.40
2023-03-01T20:54:29.664Z,2.40
2023-03-01T20:56:57.913Z,2.40
2023-03-01T20:59:25.310Z,2.30
2023-03-01T21:01:57.640Z,2.40
2023-03-01T21:04:25.657Z,2.40
2023-03-01T21:06:53.769Z,2.40
2023-03-01T21:09:21.839Z,2.30
2023-03-01T21:11:52.692Z,2.30
2023-03-01T21:14:33.154Z,2.30
2023-03-01T21:17:05.830Z,2.30
2023-03-01T21:19:38.609Z,2.30
2023-03-01T21:22:05.587Z,2.30
2023-03-01T21:24:32.804Z,2.30
2023-03-01T21:26:59.741Z,2.30
2023-03-01T21:29:26.656Z,2.30
2023-03-01T21:31:54.237Z,2.30
2023-03-01T21:34:21.191Z,2.30
2023-03-01T21:36:47.984Z,2.30
2023-03-01T21:39:14.940Z,2.30
2023-03-01T21:41:42.000Z,2.30
2023-03-01T21:44:08.980Z,2.30
2023-03-01T21:46:37.878Z,2.30
2023-03-01T21:49:07.276Z,2.30
2023-03-01T21:51:36.415Z,2.30
2023-03-01T21:56:51.095Z,2.40
2023-03-01T21:59:19.128Z,2.40
2023-03-01T22:01:46.608Z,2.40
2023-03-01T22:04:13.675Z,2.30
2023-03-01T22:06:42.763Z,2.30
2023-03-01T22:09:40.976Z,2.30
2023-03-01T22:12:11.192Z,2.40
2023-03-01T22:14:38.083Z,2.40
2023-03-01T22:17:04.915Z,2.30
2023-03-01T22:19:32.266Z,2.30
2023-03-01T22:21:59.246Z,2.30
2023-03-01T22:24:28.832Z,2.30
2023-03-01T22:26:55.857Z,2.30
2023-03-01T22:29:25.033Z,2.30
2023-03-01T22:31:55.324Z,2.40
2023-03-01T22:34:22.359Z,2.40
2023-03-01T22:36:49.306Z,2.40
2023-03-01T22:39:17.450Z,2.40
2023-03-01T22:41:45.997Z,2.40
2023-03-01T22:44:13.752Z,2.40
2023-03-01T22:46:40.850Z,2.40
2023-03-01T22:49:07.817Z,2.40
2023-03-01T22:51:36.047Z,2.40
2023-03-01T22:54:03.143Z,2.40
2023-03-01T22:56:32.054Z,2.50
2023-03-01T22:58:59.814Z,2.40
2023-03-01T23:01:26.937Z,2.40
2023-03-01T23:03:53.806Z,2.40
2023-03-01T23:06:21.579Z,2.40
2023-03-01T23:08:53.131Z,2.40
2023-03-01T23:11:21.026Z,2.50
2023-03-01T23:13:48.441Z,2.50
2023-03-01T23:16:16.664Z,2.50
2023-03-01T23:18:43.760Z,2.50
2023-03-01T23:21:11.589Z,2.40
2023-03-01T23:23:38.777Z,2.40
2023-03-01T23:26:06.045Z,2.40
2023-03-01T23:28:33.598Z,2.40
2023-03-01T23:31:01.866Z,2.40
2023-03-01T23:33:29.391Z,2.40
2023-03-01T23:35:59.232Z,2.30
2023-03-01T23:38:27.276Z,2.30
2023-03-01T23:40:54.139Z,2.40
2023-03-01T23:43:21.015Z,2.30
2023-03-01T23:45:48.085Z,2.20
2023-03-01T23:48:15.202Z,2.20
2023-03-01T23:50:42.342Z,2.10
2023-03-01T23:53:13.802Z,2.10
2023-03-01T23:55:53.017Z,2.10
2023-03-01T23:58:20.125Z,2.00
